createdAt,value
2022-08-05T00:02:39.427Z,101177.84
2022-08-05T00:06:01.594Z,101120.88
2022-08-05T00:08:35.450Z,101181.78
2022-08-05T00:11:34.465Z,101164.22
2022-08-05T00:14:16.819Z,101161.56
2022-08-05T00:16:54.032Z,101179.56
2022-08-05T00:19:33.322Z,101197.72
2022-08-05T00:22:06.590Z,101211.22
2022-08-05T00:24:43.676Z,101202.53
2022-08-05T00:27:19.651Z,101202.81
2022-08-05T00:29:52.247Z,101221.94
2022-08-05T00:32:31.093Z,101202.53
2022-08-05T00:35:07.830Z,101223.66
2022-08-05T00:37:52.707Z,101151.16
2022-08-05T00:40:30.877Z,101232.34
2022-08-05T00:43:12.515Z,101220.53
2022-08-05T00:45:48.836Z,101229.88
2022-08-05T00:48:27.452Z,101186.25
2022-08-05T00:51:09.035Z,101222.13
2022-08-05T00:54:02.243Z,101204.44
2022-08-05T00:56:36.955Z,101184.91
2022-08-05T00:59:13.609Z,101121.75
2022-08-05T01:01:48.990Z,101171.84
2022-08-05T01:04:26.976Z,101209.88
2022-08-05T01:07:08.579Z,101216.38
2022-08-05T01:09:46.878Z,101192.34
2022-08-05T01:12:29.714Z,101186.13
2022-08-05T01:15:35.675Z,101234.50
2022-08-05T01:18:09.635Z,101266.97
2022-08-05T01:21:13.546Z,101245.38
2022-08-05T01:24:32.870Z,101256.84
2022-08-05T01:27:55.313Z,101261.00
2022-08-05T01:30:36.508Z,101287.84
2022-08-05T01:33:19.644Z,101314.53
2022-08-05T01:36:16.011Z,101310.69
2022-08-05T01:38:50.916Z,101312.72
2022-08-05T01:41:38.204Z,101277.28
2022-08-05T01:44:34.230Z,101288.31
2022-08-05T01:47:21.506Z,101249.50
2022-08-05T01:50:00.317Z,101302.41
2022-08-05T01:52:40.528Z,101310.53
2022-08-05T01:55:21.678Z,101271.41
2022-08-05T01:58:10.210Z,101276.09
2022-08-05T02:00:55.156Z,101280.16
2022-08-05T02:03:47.324Z,101186.44
2022-08-05T02:06:33.450Z,101163.78
2022-08-05T02:09:16.430Z,101218.81
2022-08-05T02:12:32.861Z,101247.09
2022-08-05T02:15:33.195Z,101223.66
2022-08-05T02:18:44.628Z,101241.97
2022-08-05T02:21:46.776Z,101247.69
2022-08-05T02:24:55.408Z,101224.19
2022-08-05T02:27:57.880Z,101213.97
2022-08-05T02:30:54.810Z,101245.63
2022-08-05T02:33:45.544Z,101228.97
2022-08-05T02:36:31.198Z,101248.97
2022-08-05T02:39:12.239Z,101199.28
2022-08-05T02:42:01.140Z,101182.53
2022-08-05T02:44:40.762Z,101278.06
2022-08-05T02:48:11.519Z,101226.69
2022-08-05T02:50:45.391Z,101237.50
2022-08-05T02:53:22.196Z,101270.50
2022-08-05T02:56:18.792Z,101152.38
2022-08-05T02:59:07.675Z,101166.47
2022-08-05T03:02:16.843Z,101180.44
2022-08-05T03:04:58.240Z,101213.06
2022-08-05T03:08:00.409Z,101184.81
2022-08-05T03:15:06.777Z,101152.38
2022-08-05T03:16:23.357Z,101198.78
2022-08-05T03:19:12.858Z,101154.03
2022-08-05T03:22:05.047Z,101222.94
2022-08-05T03:28:25.925Z,101190.59
2022-08-05T03:31:04.291Z,101271.06
2022-08-05T03:37:22.199Z,101201.06
2022-08-05T03:39:47.356Z,101206.72
2022-08-05T03:42:52.217Z,101194.16
2022-08-05T03:45:23.655Z,101237.91
2022-08-05T03:47:58.864Z,101146.06
2022-08-05T03:52:38.875Z,101254.50
2022-08-05T03:55:06.918Z,101231.47
2022-08-05T03:57:41.821Z,101259.38
2022-08-05T04:00:16.734Z,101299.59
2022-08-05T04:02:58.978Z,101266.75
2022-08-05T04:05:35.559Z,101303.75
2022-08-05T04:08:14.532Z,101298.81
2022-08-05T04:11:04.141Z,101263.56
2022-08-05T04:13:53.472Z,101283.78
2022-08-05T04:16:32.465Z,101224.00
2022-08-05T04:19:10.545Z,101268.28
2022-08-05T04:22:09.086Z,101249.81
2022-08-05T04:24:36.056Z,101280.88
2022-08-05T04:27:08.831Z,101261.63
2022-08-05T04:29:43.891Z,101270.03
2022-08-05T04:32:30.561Z,101270.31
2022-08-05T04:35:04.661Z,101283.03
2022-08-05T04:38:02.493Z,101259.69
2022-08-05T04:40:35.416Z,101283.78
2022-08-05T04:43:11.037Z,101279.63
2022-08-05T04:45:54.920Z,101287.34
2022-08-05T04:48:28.550Z,101293.44
2022-08-05T04:51:11.338Z,101301.81
2022-08-05T04:53:44.291Z,101298.53
2022-08-05T04:56:35.035Z,101301.66
2022-08-05T04:59:21.696Z,101285.22
2022-08-05T05:02:08.196Z,101273.06
2022-08-05T05:04:51.744Z,101284.06
2022-08-05T05:07:29.560Z,101285.09
2022-08-05T05:10:06.663Z,101306.81
2022-08-05T05:12:39.486Z,101300.53
2022-08-05T05:15:12.660Z,101306.09
2022-08-05T05:17:56.460Z,101288.88
2022-08-05T05:20:30.884Z,101294.84
2022-08-05T05:23:08.408Z,101284.47
2022-08-05T05:25:52.603Z,101287.81
2022-08-05T05:28:25.348Z,101281.34
2022-08-05T05:30:58.387Z,101283.16
2022-08-05T05:33:31.354Z,101305.84
2022-08-05T05:36:24.035Z,101299.88
2022-08-05T05:39:03.717Z,101323.22
2022-08-05T05:41:40.538Z,101329.19
2022-08-05T05:44:35.949Z,101276.25
2022-08-05T05:47:21.337Z,101310.75
2022-08-05T05:50:01.297Z,101332.00
2022-08-05T05:52:40.538Z,101292.78
2022-08-05T05:55:15.537Z,101313.31
2022-08-05T05:57:52.683Z,101290.88
2022-08-05T06:00:31.309Z,101298.03
2022-08-05T06:03:40.096Z,101306.22
2022-08-05T06:05:59.667Z,101304.22
2022-08-05T06:08:35.205Z,101338.63
2022-08-05T06:11:13.434Z,101318.69
2022-08-05T06:13:50.525Z,101266.03
2022-08-05T06:16:36.643Z,101336.81
2022-08-05T06:19:12.444Z,101334.84
2022-08-05T06:21:49.803Z,101335.97
2022-08-05T06:24:25.824Z,101325.47
2022-08-05T06:27:01.314Z,101314.28
2022-08-05T06:29:48.914Z,101298.91
2022-08-05T06:32:29.437Z,101322.56
2022-08-05T06:35:06.074Z,101313.59
2022-08-05T06:37:58.177Z,101312.38
2022-08-05T06:40:33.618Z,101363.81
2022-08-05T06:43:06.393Z,101322.94
2022-08-05T06:46:03.832Z,101303.72
2022-08-05T06:48:52.887Z,101325.19
2022-08-05T06:51:31.323Z,101348.47
2022-08-05T06:54:07.144Z,101387.75
2022-08-05T06:56:42.876Z,101354.53
2022-08-05T06:59:27.894Z,101383.88
2022-08-05T07:02:00.762Z,101399.41
2022-08-05T07:04:34.363Z,101357.03
2022-08-05T07:07:11.221Z,101314.31
2022-08-05T07:09:47.882Z,101391.50
2022-08-05T07:12:49.188Z,101408.41
2022-08-05T07:16:00.816Z,101377.34
2022-08-05T07:18:34.399Z,101398.78
2022-08-05T07:21:07.907Z,101390.41
2022-08-05T07:23:49.149Z,101408.28
2022-08-05T07:26:25.010Z,101409.50
2022-08-05T07:28:59.653Z,101392.44
2022-08-05T07:31:54.005Z,101421.31
2022-08-05T07:34:28.578Z,101420.84
2022-08-05T07:37:01.497Z,101405.00
2022-08-05T07:40:26.887Z,101399.69
2022-08-05T07:42:33.819Z,101439.66
2022-08-05T07:45:09.276Z,101419.72
2022-08-05T07:47:42.744Z,101425.75
2022-08-05T07:50:16.651Z,101441.84
2022-08-05T07:52:49.969Z,101420.63
2022-08-05T07:55:44.195Z,101448.53
2022-08-05T07:58:57.529Z,101401.31
2022-08-05T08:01:15.407Z,101422.66
2022-08-05T08:03:48.601Z,101416.91
2022-08-05T08:06:28.118Z,101436.06
2022-08-05T08:09:06.801Z,101378.00
2022-08-05T08:11:58.945Z,101475.59
2022-08-05T08:14:40.789Z,101446.88
2022-08-05T08:17:39.580Z,101425.22
2022-08-05T08:26:57.561Z,101447.31
2022-08-05T08:27:07.677Z,101402.53
2022-08-05T08:32:53.850Z,101442.59
2022-08-05T08:35:41.198Z,101494.31
2022-08-05T08:40:07.299Z,101478.09
2022-08-05T08:41:52.115Z,101507.78
2022-08-05T08:45:17.714Z,101486.16
2022-08-05T08:52:17.777Z,101525.63
2022-08-05T08:56:02.613Z,101457.38
2022-08-05T09:01:35.955Z,101463.81
2022-08-05T09:04:21.835Z,101495.97
2022-08-05T09:07:29.222Z,101493.63
2022-08-05T09:10:17.691Z,101495.59
2022-08-05T09:13:12.177Z,101508.19
2022-08-05T09:15:49.591Z,101484.22
2022-08-05T09:18:51.637Z,101533.56
2022-08-05T09:24:44.212Z,101564.84
2022-08-05T09:28:04.632Z,101572.44
2022-08-05T09:30:31.734Z,101532.25
2022-08-05T09:33:17.472Z,101542.69
2022-08-05T09:36:11.857Z,101533.94
2022-08-05T09:39:45.840Z,101484.69
2022-08-05T09:42:28.534Z,101538.41
2022-08-05T09:45:17.826Z,101554.13
2022-08-05T09:48:01.074Z,101559.31
2022-08-05T09:50:44.445Z,101573.50
2022-08-05T09:53:26.202Z,101582.88
2022-08-05T09:56:13.150Z,101544.88
2022-08-05T09:59:06.805Z,101573.22
2022-08-05T10:01:45.863Z,101579.41
2022-08-05T10:04:18.986Z,101578.94
2022-08-05T10:07:19.458Z,101532.03
2022-08-05T10:10:04.235Z,101581.19
2022-08-05T10:12:52.679Z,101568.84
2022-08-05T10:15:36.571Z,101537.34
2022-08-05T10:18:19.870Z,101584.59
2022-08-05T10:20:56.757Z,101590.34
2022-08-05T10:23:56.217Z,101597.75
2022-08-05T10:26:32.398Z,101597.84
2022-08-05T10:29:07.551Z,101576.53
2022-08-05T10:32:53.997Z,101596.09
2022-08-05T10:34:34.786Z,101595.63
2022-08-05T10:37:09.961Z,101609.97
2022-08-05T10:40:03.255Z,101591.47
2022-08-05T10:42:39.310Z,101598.16
2022-08-05T10:45:39.811Z,101593.00
2022-08-05T10:48:56.519Z,101596.66
2022-08-05T10:51:57.285Z,101610.19
2022-08-05T10:55:05.869Z,101612.09
2022-08-05T10:57:41.274Z,101594.72
2022-08-05T11:00:23.097Z,101617.50
2022-08-05T11:03:24.625Z,101621.84
2022-08-05T11:06:16.135Z,101614.19
2022-08-05T11:09:24.478Z,101632.50
2022-08-05T11:12:06.164Z,101639.38
2022-08-05T11:18:07.539Z,101601.13
2022-08-05T11:20:43.882Z,101630.47
2022-08-05T11:24:04.387Z,101640.69
2022-08-05T11:26:34.593Z,101631.22
2022-08-05T11:29:13.537Z,101597.91
2022-08-05T11:31:54.275Z,101633.34
2022-08-05T11:34:50.748Z,101625.78
2022-08-05T11:38:29.466Z,101640.38
2022-08-05T11:41:35.621Z,101637.69
2022-08-05T11:44:11.425Z,101634.06
2022-08-05T11:47:09.197Z,101645.44
2022-08-05T11:49:43.461Z,101642.28
2022-08-05T11:52:29.259Z,101631.59
2022-08-05T11:55:07.336Z,101650.06
2022-08-05T11:58:09.811Z,101629.38
2022-08-05T12:00:41.182Z,101655.19
2022-08-05T12:03:23.789Z,101630.50
2022-08-05T12:06:06.457Z,101661.66
2022-08-05T12:08:53.377Z,101645.81
2022-08-05T12:11:40.183Z,101659.41
2022-08-05T12:14:14.707Z,101653.25
2022-08-05T12:16:49.586Z,101662.72
2022-08-05T12:20:26.353Z,101685.84
2022-08-05T12:22:26.361Z,101667.38
2022-08-05T12:24:59.640Z,101678.19
2022-08-05T12:27:35.713Z,101685.53
2022-08-05T12:30:29.132Z,101691.41
2022-08-05T12:33:07.127Z,101684.97
2022-08-05T12:35:58.565Z,101690.03
2022-08-05T12:38:31.623Z,101719.88
2022-08-05T12:41:13.250Z,101701.78
2022-08-05T12:44:11.602Z,101717.28
2022-08-05T12:46:56.564Z,101731.88
2022-08-05T12:50:04.197Z,101735.41
2022-08-05T12:52:42.697Z,101728.59
2022-08-05T12:55:23.946Z,101729.38
2022-08-05T12:58:51.273Z,101716.88
2022-08-05T13:02:03.021Z,101731.97
2022-08-05T13:03:48.865Z,101739.25
2022-08-05T13:06:26.449Z,101748.19
2022-08-05T13:09:08.659Z,101748.28
2022-08-05T13:12:01.503Z,101728.63
2022-08-05T13:17:41.900Z,101737.34
2022-08-05T13:20:21.796Z,101744.34
2022-08-05T13:23:00.313Z,101731.88
2022-08-05T13:25:51.830Z,101718.66
2022-08-05T13:28:29.465Z,101755.53
2022-08-05T13:31:13.949Z,101776.78
2022-08-05T13:34:23.604Z,101763.56
2022-08-05T13:36:46.634Z,101750.81
2022-08-05T13:40:14.362Z,101726.03
2022-08-05T13:42:15.405Z,101707.75
2022-08-05T13:44:52.037Z,101788.19
2022-08-05T13:47:35.860Z,101760.28
2022-08-05T13:50:19.736Z,101732.41
2022-08-05T13:52:52.692Z,101737.59
2022-08-05T13:55:41.774Z,101769.47
2022-08-05T13:58:30.297Z,101764.84
2022-08-05T14:01:12.965Z,101772.31
2022-08-05T14:04:05.738Z,101730.16
2022-08-05T14:06:39.932Z,101713.16
2022-08-05T14:09:30.332Z,101746.28
2022-08-05T14:12:17.662Z,101729.50
2022-08-05T14:14:56.904Z,101799.63
2022-08-05T14:17:29.832Z,101781.19
2022-08-05T14:20:07.459Z,101780.13
2022-08-05T14:22:40.670Z,101799.38
2022-08-05T14:25:28.090Z,101782.69
2022-08-05T14:28:01.165Z,101775.69
2022-08-05T14:30:33.748Z,101784.41
2022-08-05T14:33:09.898Z,101739.38
2022-08-05T14:35:51.339Z,101803.56
2022-08-05T14:38:34.064Z,101797.31
2022-08-05T14:41:08.528Z,101814.59
2022-08-05T14:44:01.930Z,101809.09
2022-08-05T14:46:34.993Z,101804.75
2022-08-05T14:49:08.439Z,101809.41
2022-08-05T14:51:42.911Z,101819.75
2022-08-05T14:54:27.723Z,101805.28
2022-08-05T14:57:05.273Z,101795.78
2022-08-05T14:59:42.212Z,101787.00
2022-08-05T15:02:16.062Z,101815.13
2022-08-05T15:04:49.917Z,101807.84
2022-08-05T15:08:08.681Z,101787.59
2022-08-05T15:10:15.831Z,101809.44
2022-08-05T15:13:00.173Z,101789.03
2022-08-05T15:15:53.893Z,101813.44
2022-08-05T15:18:27.747Z,101805.19
2022-08-05T15:21:07.174Z,101823.38
2022-08-05T15:23:40.575Z,101826.38
2022-08-05T15:26:13.447Z,101821.00
2022-08-05T15:28:54.438Z,101826.91
2022-08-05T15:31:34.534Z,101823.63
2022-08-05T15:34:32.443Z,101826.34
2022-08-05T15:37:06.974Z,101824.94
2022-08-05T15:40:59.231Z,101823.97
2022-08-05T15:42:54.609Z,101819.56
2022-08-05T15:45:37.932Z,101813.91
2022-08-05T15:48:13.994Z,101819.78
2022-08-05T15:50:50.493Z,101833.31
2022-08-05T15:53:26.564Z,101793.69
2022-08-05T15:56:14.146Z,101829.66
2022-08-05T15:58:56.930Z,101800.56
2022-08-05T16:01:39.598Z,101789.53
2022-08-05T16:04:53.386Z,101767.53
2022-08-05T16:07:39.501Z,101782.84
2022-08-05T16:10:55.113Z,101833.69
2022-08-05T16:13:53.475Z,101817.38
2022-08-05T16:16:29.706Z,101821.34
2022-08-05T16:19:09.764Z,101782.66
2022-08-05T16:22:00.528Z,101782.06
2022-08-05T16:24:40.143Z,101876.50
2022-08-05T16:27:16.007Z,101864.88
2022-08-05T16:29:50.175Z,101858.38
2022-08-05T16:32:28.590Z,101878.03
2022-08-05T16:35:03.619Z,101859.44
2022-08-05T16:38:02.930Z,101860.91
2022-08-05T16:40:30.949Z,101887.88
2022-08-05T16:43:06.751Z,101852.34
2022-08-05T16:46:06.745Z,101889.91
2022-08-05T16:48:35.068Z,101879.06
2022-08-05T16:51:09.792Z,101889.47
2022-08-05T16:54:05.727Z,101900.06
2022-08-05T16:56:36.359Z,101892.44
2022-08-05T16:59:10.373Z,101912.41
2022-08-05T17:01:53.817Z,101919.22
2022-08-05T17:04:28.892Z,101911.69
2022-08-05T17:07:03.278Z,101925.00
2022-08-05T17:09:56.028Z,101921.41
2022-08-05T17:12:51.928Z,101900.34
2022-08-05T17:15:23.926Z,101897.44
2022-08-05T17:18:02.386Z,101937.25
2022-08-05T17:20:35.193Z,101914.41
2022-08-05T17:23:09.828Z,101898.03
2022-08-05T17:26:02.452Z,101929.50
2022-08-05T17:28:36.232Z,101920.19
2022-08-05T17:31:24.039Z,101945.25
2022-08-05T17:34:01.967Z,101940.25
2022-08-05T17:36:40.365Z,101932.47
2022-08-05T17:39:24.410Z,101947.25
2022-08-05T17:42:28.611Z,101929.94
2022-08-05T17:45:09.897Z,101964.13
2022-08-05T17:47:56.043Z,101971.03
2022-08-05T17:50:30.711Z,101970.44
2022-08-05T17:53:05.107Z,101970.00
2022-08-05T17:55:40.050Z,101951.66
2022-08-05T17:58:14.539Z,101958.97
2022-08-05T18:00:50.700Z,101989.00
2022-08-05T18:03:56.315Z,101985.47
2022-08-05T18:06:17.577Z,101990.50
2022-08-05T18:09:03.791Z,101998.28
2022-08-05T18:11:36.569Z,101992.41
2022-08-05T18:14:13.349Z,101980.47
2022-08-05T18:16:51.909Z,102006.63
2022-08-05T18:19:37.859Z,102010.78
2022-08-05T18:22:17.975Z,101935.94
2022-08-05T18:24:51.973Z,101972.44
2022-08-05T18:27:24.784Z,101996.34
2022-08-05T18:29:57.864Z,101981.91
2022-08-05T18:32:33.701Z,102022.38
2022-08-05T18:35:07.423Z,102028.69
2022-08-05T18:37:44.203Z,102003.00
2022-08-05T18:41:50.162Z,101986.19
2022-08-05T18:43:16.884Z,102048.50
2022-08-05T18:45:52.089Z,101970.06
2022-08-05T18:48:33.158Z,101978.84
2022-08-05T18:52:04.324Z,102059.56
2022-08-05T18:54:20.205Z,101995.94
2022-08-05T18:56:53.121Z,102056.19
2022-08-05T18:59:44.038Z,102007.97
2022-08-05T19:02:27.690Z,101967.50
2022-08-05T19:06:05.532Z,101992.91
2022-08-05T19:08:15.279Z,102036.44
2022-08-05T19:10:49.727Z,101983.41
2022-08-05T19:13:22.959Z,102073.69
2022-08-05T19:16:00.256Z,102053.88
2022-08-05T19:18:47.840Z,102092.94
2022-08-05T19:21:22.862Z,102062.19
2022-08-05T19:24:05.544Z,102046.91
2022-08-05T19:26:43.823Z,102101.50
2022-08-05T19:29:35.724Z,102084.91
2022-08-05T19:32:13.671Z,102070.69
2022-08-05T19:34:55.145Z,102031.03
2022-08-05T19:37:47.386Z,102113.63
2022-08-05T19:40:24.205Z,102069.50
2022-08-05T19:43:04.634Z,102021.69
2022-08-05T19:45:38.461Z,102091.06
2022-08-05T19:48:33.001Z,102060.56
2022-08-05T19:51:06.780Z,102085.19
2022-08-05T19:54:04.022Z,102108.94
2022-08-05T19:56:36.967Z,102134.34
2022-08-05T19:59:21.335Z,102068.78
2022-08-05T20:02:07.024Z,102068.94
2022-08-05T20:04:42.835Z,102122.88
2022-08-05T20:07:46.618Z,102116.00
2022-08-05T20:10:14.807Z,102068.13
2022-08-05T20:12:50.651Z,102065.84
2022-08-05T20:15:52.114Z,102051.00
2022-08-05T20:18:32.705Z,102051.16
2022-08-05T20:21:08.420Z,102074.91
2022-08-05T20:23:51.129Z,102096.22
2022-08-05T20:26:26.623Z,102156.94
2022-08-05T20:29:06.591Z,102138.91
2022-08-05T20:32:03.614Z,102072.47
2022-08-05T20:34:36.821Z,102129.69
2022-08-05T20:37:24.148Z,102059.59
2022-08-05T20:40:09.988Z,102148.31
2022-08-05T20:42:43.623Z,102069.88
2022-08-05T20:45:16.704Z,102091.22
2022-08-05T20:47:53.806Z,102069.16
2022-08-05T20:50:26.731Z,102146.03
2022-08-05T20:53:00.092Z,102103.09
2022-08-05T20:55:56.220Z,102141.72
2022-08-05T20:58:31.344Z,102128.38
2022-08-05T21:01:04.976Z,102106.31
2022-08-05T21:03:47.885Z,102192.31
2022-08-05T21:06:28.534Z,102087.44
2022-08-05T21:09:04.654Z,102090.59
2022-08-05T21:12:10.463Z,102175.84
2022-08-05T21:14:35.294Z,102187.28
2022-08-05T21:17:08.358Z,102189.69
2022-08-05T21:19:47.444Z,102145.88
2022-08-05T21:22:23.976Z,102197.59
2022-08-05T21:24:58.166Z,102148.28
2022-08-05T21:27:38.569Z,102106.50
2022-08-05T21:30:17.439Z,102165.66
2022-08-05T21:32:50.554Z,102125.41
2022-08-05T21:35:30.174Z,102182.63
2022-08-05T21:38:16.800Z,102170.41
2022-08-05T21:40:50.012Z,102185.44
2022-08-05T21:43:24.722Z,102197.66
2022-08-05T21:46:00.446Z,102207.13
2022-08-05T21:48:35.965Z,102187.81
2022-08-05T21:52:16.619Z,102168.91
2022-08-05T21:54:03.798Z,102171.25
2022-08-05T21:56:44.671Z,102216.25
2022-08-05T21:59:28.014Z,102229.28
2022-08-05T22:02:10.633Z,102179.94
2022-08-05T22:04:43.633Z,102178.38
2022-08-05T22:07:16.637Z,102210.34
2022-08-05T22:09:49.603Z,102228.09
2022-08-05T22:12:26.461Z,102185.06
2022-08-05T22:15:00.684Z,102222.56
2022-08-05T22:17:33.636Z,102190.59
2022-08-05T22:20:14.880Z,102208.38
2022-08-05T22:23:17.104Z,102214.69
2022-08-05T22:26:14.966Z,102216.25
2022-08-05T22:28:47.935Z,102211.91
2022-08-05T22:31:22.424Z,102222.97
2022-08-05T22:34:01.591Z,102189.81
2022-08-05T22:36:35.182Z,102213.09
2022-08-05T22:39:12.826Z,102178.72
2022-08-05T22:42:09.494Z,102186.22
2022-08-05T22:44:55.488Z,102200.44
2022-08-05T22:47:30.688Z,102234.41
2022-08-05T22:50:20.195Z,102234.41
2022-08-05T22:52:56.097Z,102209.91
2022-08-05T22:55:56.243Z,102271.50
2022-08-05T22:58:28.785Z,102187.75
2022-08-05T23:01:02.273Z,102218.16
2022-08-05T23:03:58.195Z,102253.28
2022-08-05T23:06:27.940Z,102248.53
2022-08-05T23:09:24.678Z,102251.72
2022-08-05T23:11:54.501Z,102239.03
2022-08-05T23:14:31.999Z,102269.03
2022-08-05T23:17:24.232Z,102291.13
2022-08-05T23:20:17.636Z,102251.22
2022-08-05T23:22:50.922Z,102238.09
2022-08-05T23:25:52.144Z,102221.53
2022-08-05T23:28:28.713Z,102251.59
2022-08-05T23:31:15.942Z,102214.38
2022-08-05T23:34:05.658Z,102298.63
2022-08-05T23:36:44.310Z,102275.25
2022-08-05T23:39:31.931Z,102222.13
2022-08-05T23:42:14.579Z,102271.94
2022-08-05T23:44:54.338Z,102290.09
2022-08-05T23:47:27.780Z,102274.25
2022-08-05T23:50:09.638Z,102215.69
2022-08-05T23:52:49.513Z,102220.44
2022-08-05T23:55:24.743Z,102266.31
2022-08-05T23:58:05.363Z,102266.31
